KDVN/DVN METAR and TAF weather

Enter ICAO airport designator
Station Type Date Time Source
KDVN METAR 2021/06/24 04:52 UTC NOAA

KDVN 240452Z AUTO 18011KT 10SM OVC046 23/12 A2996 RMK AO2 SLP137 T02280122


Station Type Date Time Source
KDVN Decoded METAR 2021/06/24 04:52 UTC NOAA

DAVENPORT MUNICIPAL AIRPORT, IA, United States (KDVN) 41-37N 90-35W 228M
Jun 24, 2021 - 12:52 AM EDT / 2021.06.24 0452 UTC
Wind: from the S (180 degrees) at 13 MPH (11 KT):0
Visibility: 10 mile(s):0
Sky conditions: overcast
Temperature: 73.0 F (22.8 C)
Dew Point: 54.0 F (12.2 C)
Relative Humidity: 51%
Pressure (altimeter): 29.96 in. Hg (1014 hPa)
ob: KDVN 240452Z AUTO 18011KT 10SM OVC046 23/12 A2996 RMK AO2 SLP137 T02280122
cycle: 5

Station Type Date Time Source
KDVN TAF UTC NOAA

Error!

Example: see airport list